sensor_id;sensor_type;location;lat;lon;timestamp;pressure;altitude;pressure_sealevel;temperature;humidity
6829;BME280;17930;48.592;8.868;2022-12-29T00:00:03;96380.25;;;7.98;100.00
6829;BME280;17930;48.592;8.868;2022-12-29T00:02:29;96386.78;;;7.90;100.00
6829;BME280;17930;48.592;8.868;2022-12-29T00:04:56;96388.56;;;8.00;100.00
6829;BME280;17930;48.592;8.868;2022-12-29T00:07:24;96377.94;;;7.86;100.00
6829;BME280;17930;48.592;8.868;2022-12-29T00:09:51;96375.91;;;7.73;100.00
6829;BME280;17930;48.592;8.868;2022-12-29T00:12:17;96370.47;;;7.70;100.00
6829;BME280;17930;48.592;8.868;2022-12-29T00:14:44;96357.47;;;7.80;100.00
6829;BME280;17930;48.592;8.868;2022-12-29T00:17:29;96352.78;;;7.87;100.00
6829;BME280;17930;48.592;8.868;2022-12-29T00:19:56;96356.31;;;8.20;100.00
6829;BME280;17930;48.592;8.868;2022-12-29T00:22:41;96353.94;;;8.34;100.00
6829;BME280;17930;48.592;8.868;2022-12-29T00:25:26;96346.72;;;8.21;100.00
6829;BME280;17930;48.592;8.868;2022-12-29T00:28:10;96358.91;;;8.20;100.00
6829;BME280;17930;48.592;8.868;2022-12-29T00:30:58;96342.84;;;8.14;100.00
6829;BME280;17930;48.592;8.868;2022-12-29T00:33:43;96342.88;;;8.04;100.00
6829;BME280;17930;48.592;8.868;2022-12-29T00:36:42;96347.00;;;8.10;100.00
6829;BME280;17930;48.592;8.868;2022-12-29T00:39:13;96353.75;;;8.01;100.00
6829;BME280;17930;48.592;8.868;2022-12-29T00:42:03;96351.69;;;8.13;100.00
6829;BME280;17930;48.592;8.868;2022-12-29T00:44:59;96357.09;;;8.16;100.00
6829;BME280;17930;48.592;8.868;2022-12-29T00:47:25;96346.97;;;8.19;100.00
6829;BME280;17930;48.592;8.868;2022-12-29T00:49:52;96345.28;;;8.48;100.00
6829;BME280;17930;48.592;8.868;2022-12-29T00:52:18;96338.94;;;8.64;100.00
6829;BME280;17930;48.592;8.868;2022-12-29T00:54:46;96343.84;;;8.70;100.00
6829;BME280;17930;48.592;8.868;2022-12-29T00:57:13;96343.13;;;8.60;100.00
6829;BME280;17930;48.592;8.868;2022-12-29T00:59:41;96344.75;;;8.51;100.00
6829;BME280;17930;48.592;8.868;2022-12-29T01:02:08;96338.28;;;8.44;100.00
6829;BME280;17930;48.592;8.868;2022-12-29T01:04:35;96339.47;;;8.61;100.00
6829;BME280;17930;48.592;8.868;2022-12-29T01:07:02;96342.06;;;8.66;100.00
6829;BME280;17930;48.592;8.868;2022-12-29T01:09:30;96347.81;;;8.63;100.00
6829;BME280;17930;48.592;8.868;2022-12-29T01:12:16;96345.66;;;8.75;100.00
6829;BME280;17930;48.592;8.868;2022-12-29T01:15:03;96339.47;;;8.61;100.00
6829;BME280;17930;48.592;8.868;2022-12-29T01:17:30;96341.81;;;8.63;100.00
6829;BME280;17930;48.592;8.868;2022-12-29T01:19:57;96336.38;;;8.59;100.00
6829;BME280;17930;48.592;8.868;2022-12-29T01:22:23;96338.44;;;8.62;100.00
6829;BME280;17930;48.592;8.868;2022-12-29T01:24:50;96341.00;;;8.67;100.00
6829;BME280;17930;48.592;8.868;2022-12-29T01:27:18;96347.75;;;8.68;100.00
6829;BME280;17930;48.592;8.868;2022-12-29T01:29:45;96360.16;;;8.81;100.00
6829;BME280;17930;48.592;8.868;2022-12-29T01:32:12;96353.16;;;8.76;100.00
6829;BME280;17930;48.592;8.868;2022-12-29T01:34:38;96347.22;;;8.71;100.00
6829;BME280;17930;48.592;8.868;2022-12-29T01:37:05;96350.75;;;8.90;100.00
6829;BME280;17930;48.592;8.868;2022-12-29T01:39:31;96350.97;;;8.93;100.00
6829;BME280;17930;48.592;8.868;2022-12-29T01:41:58;96357.47;;;8.96;100.00
6829;BME280;17930;48.592;8.868;2022-12-29T01:44:50;96351.22;;;9.30;100.00
6829;BME280;17930;48.592;8.868;2022-12-29T01:47:23;96345.25;;;9.29;100.00
6829;BME280;17930;48.592;8.868;2022-12-29T01:49:54;96341.56;;;9.35;100.00
6829;BME280;17930;48.592;8.868;2022-12-29T01:52:22;96342.75;;;9.19;100.00
6829;BME280;17930;48.592;8.868;2022-12-29T01:54:52;96346.38;;;9.18;100.00
6829;BME280;17930;48.592;8.868;2022-12-29T01:57:23;96341.09;;;9.28;100.00
6829;BME280;17930;48.592;8.868;2022-12-29T01:59:55;96337.69;;;9.28;100.00
6829;BME280;17930;48.592;8.868;2022-12-29T02:02:24;96336.09;;;9.32;100.00
6829;BME280;17930;48.592;8.868;2022-12-29T02:04:52;96342.75;;;9.19;100.00
6829;BME280;17930;48.592;8.868;2022-12-29T02:07:24;96348.94;;;9.23;100.00
6829;BME280;17930;48.592;8.868;2022-12-29T02:09:54;96331.44;;;9.29;100.00
6829;BME280;17930;48.592;8.868;2022-12-29T02:12:22;96326.97;;;9.34;100.00
6829;BME280;17930;48.592;8.868;2022-12-29T02:14:55;96328.66;;;9.20;100.00
6829;BME280;17930;48.592;8.868;2022-12-29T02:17:36;96317.25;;;9.17;100.00
6829;BME280;17930;48.592;8.868;2022-12-29T02:20:30;96325.09;;;9.12;100.00
6829;BME280;17930;48.592;8.868;2022-12-29T02:23:10;96318.34;;;9.11;100.00
6829;BME280;17930;48.592;8.868;2022-12-29T02:25:57;96332.44;;;9.05;100.00
6829;BME280;17930;48.592;8.868;2022-12-29T02:28:52;96333.25;;;9.00;100.00
6829;BME280;17930;48.592;8.868;2022-12-29T02:31:27;96333.94;;;9.11;100.00
6829;BME280;17930;48.592;8.868;2022-12-29T02:34:04;96324.97;;;8.93;100.00
6829;BME280;17930;48.592;8.868;2022-12-29T02:36:42;96331.69;;;8.99;100.00
6829;BME280;17930;48.592;8.868;2022-12-29T02:39:16;96321.00;;;9.06;100.00
6829;BME280;17930;48.592;8.868;2022-12-29T02:41:56;96317.16;;;9.26;100.00
6829;BME280;17930;48.592;8.868;2022-12-29T02:44:28;96323.31;;;9.07;100.00
6829;BME280;17930;48.592;8.868;2022-12-29T02:47:05;96321.56;;;8.98;100.00
6829;BME280;17930;48.592;8.868;2022-12-29T02:49:39;96323.19;;;8.89;100.00
6829;BME280;17930;48.592;8.868;2022-12-29T02:52:14;96331.84;;;8.79;100.00
6829;BME280;17930;48.592;8.868;2022-12-29T02:54:43;96340.38;;;8.85;100.00
6829;BME280;17930;48.592;8.868;2022-12-29T02:57:11;96328.31;;;8.99;100.00
6829;BME280;17930;48.592;8.868;2022-12-29T02:59:38;96324.56;;;9.15;100.00
6829;BME280;17930;48.592;8.868;2022-12-29T03:02:19;96324.56;;;9.15;100.00
6829;BME280;17930;48.592;8.868;2022-12-29T03:07:47;96319.53;;;10.03;100.00
6829;BME280;17930;48.592;8.868;2022-12-29T03:10:27;96326.38;;;9.99;100.00
6829;BME280;17930;48.592;8.868;2022-12-29T03:13:02;96314.47;;;9.88;100.00
6829;BME280;17930;48.592;8.868;2022-12-29T03:15:55;96301.59;;;10.20;100.00
6829;BME280;17930;48.592;8.868;2022-12-29T03:18:37;96306.44;;;10.49;100.00
6829;BME280;17930;48.592;8.868;2022-12-29T03:21:09;96300.53;;;10.62;100.00
6829;BME280;17930;48.592;8.868;2022-12-29T03:23:38;96306.56;;;10.94;100.00
6829;BME280;17930;48.592;8.868;2022-12-29T03:26:08;96298.38;;;11.01;100.00
6829;BME280;17930;48.592;8.868;2022-12-29T03:28:39;96285.22;;;11.06;100.00
6829;BME280;17930;48.592;8.868;2022-12-29T03:31:08;96281.94;;;11.00;100.00
6829;BME280;17930;48.592;8.868;2022-12-29T03:33:37;96283.34;;;10.93;100.00
6829;BME280;17930;48.592;8.868;2022-12-29T03:36:08;96272.09;;;10.79;100.00
6829;BME280;17930;48.592;8.868;2022-12-29T03:38:40;96283.09;;;10.58;100.00
6829;BME280;17930;48.592;8.868;2022-12-29T03:41:12;96283.03;;;10.44;100.00
6829;BME280;17930;48.592;8.868;2022-12-29T03:43:40;96273.25;;;10.36;100.00
6829;BME280;17930;48.592;8.868;2022-12-29T03:46:07;96276.63;;;10.55;100.00
6829;BME280;17930;48.592;8.868;2022-12-29T03:48:34;96277.53;;;10.64;100.00
6829;BME280;17930;48.592;8.868;2022-12-29T03:51:02;96272.91;;;10.43;100.00
6829;BME280;17930;48.592;8.868;2022-12-29T03:53:28;96266.63;;;10.44;100.00
6829;BME280;17930;48.592;8.868;2022-12-29T03:55:55;96277.53;;;10.27;100.00
6829;BME280;17930;48.592;8.868;2022-12-29T03:58:22;96284.00;;;10.12;100.00
6829;BME280;17930;48.592;8.868;2022-12-29T04:00:48;96299.41;;;10.08;100.00
6829;BME280;17930;48.592;8.868;2022-12-29T04:03:15;96309.94;;;10.22;100.00
6829;BME280;17930;48.592;8.868;2022-12-29T04:05:42;96298.03;;;10.52;100.00
6829;BME280;17930;48.592;8.868;2022-12-29T04:08:09;96290.00;;;10.49;100.00
6829;BME280;17930;48.592;8.868;2022-12-29T04:10:36;96293.94;;;10.28;100.00
6829;BME280;17930;48.592;8.868;2022-12-29T04:13:03;96297.50;;;10.14;100.00
6829;BME280;17930;48.592;8.868;2022-12-29T04:15:29;96295.00;;;10.09;100.00
6829;BME280;17930;48.592;8.868;2022-12-29T04:17:56;96287.19;;;10.27;100.00
6829;BME280;17930;48.592;8.868;2022-12-29T04:20:23;96305.03;;;10.38;100.00
6829;BME280;17930;48.592;8.868;2022-12-29T04:23:07;96299.03;;;10.38;100.00
6829;BME280;17930;48.592;8.868;2022-12-29T04:25:35;96292.06;;;10.33;100.00
6829;BME280;17930;48.592;8.868;2022-12-29T04:28:02;96296.00;;;10.49;100.00
6829;BME280;17930;48.592;8.868;2022-12-29T04:30:28;96298.97;;;10.61;100.00
6829;BME280;17930;48.592;8.868;2022-12-29T04:32:55;96277.59;;;10.59;100.00
6829;BME280;17930;48.592;8.868;2022-12-29T04:35:22;96276.34;;;10.38;100.00
6829;BME280;17930;48.592;8.868;2022-12-29T04:37:48;96266.41;;;10.40;100.00
6829;BME280;17930;48.592;8.868;2022-12-29T04:40:15;96274.50;;;10.57;100.00
6829;BME280;17930;48.592;8.868;2022-12-29T04:42:43;96283.91;;;10.58;100.00
6829;BME280;17930;48.592;8.868;2022-12-29T04:45:10;96274.38;;;10.67;100.00
6829;BME280;17930;48.592;8.868;2022-12-29T04:47:37;96282.75;;;10.64;100.00
6829;BME280;17930;48.592;8.868;2022-12-29T04:50:04;96290.50;;;10.69;100.00
6829;BME280;17930;48.592;8.868;2022-12-29T04:52:31;96278.66;;;10.95;100.00
6829;BME280;17930;48.592;8.868;2022-12-29T04:54:58;96273.06;;;10.83;100.00
6829;BME280;17930;48.592;8.868;2022-12-29T04:57:24;96265.72;;;11.03;100.00
6829;BME280;17930;48.592;8.868;2022-12-29T04:59:52;96259.00;;;10.97;100.00
6829;BME280;17930;48.592;8.868;2022-12-29T05:02:19;96263.41;;;11.02;100.00
6829;BME280;17930;48.592;8.868;2022-12-29T05:04:46;96266.78;;;11.02;100.00
6829;BME280;17930;48.592;8.868;2022-12-29T05:07:13;96256.50;;;10.92;100.00
6829;BME280;17930;48.592;8.868;2022-12-29T05:09:39;96267.34;;;10.99;100.00
6829;BME280;17930;48.592;8.868;2022-12-29T05:12:06;96274.38;;;10.99;100.00
6829;BME280;17930;48.592;8.868;2022-12-29T05:14:33;96275.91;;;10.86;100.00
6829;BME280;17930;48.592;8.868;2022-12-29T05:17:01;96271.97;;;10.71;100.00
6829;BME280;17930;48.592;8.868;2022-12-29T05:19:28;96278.97;;;10.57;100.00
6829;BME280;17930;48.592;8.868;2022-12-29T05:21:54;96277.25;;;10.47;100.00
6829;BME280;17930;48.592;8.868;2022-12-29T05:24:21;96278.59;;;10.63;100.00
6829;BME280;17930;48.592;8.868;2022-12-29T05:26:48;96269.63;;;10.69;100.00
6829;BME280;17930;48.592;8.868;2022-12-29T05:29:14;96272.38;;;10.77;100.00
6829;BME280;17930;48.592;8.868;2022-12-29T05:31:41;96277.72;;;10.86;100.00
6829;BME280;17930;48.592;8.868;2022-12-29T05:34:10;96264.63;;;10.91;100.00
6829;BME280;17930;48.592;8.868;2022-12-29T05:36:37;96279.22;;;10.92;100.00
6829;BME280;17930;48.592;8.868;2022-12-29T05:39:04;96263.88;;;11.04;100.00
6829;BME280;17930;48.592;8.868;2022-12-29T05:41:30;96273.16;;;11.10;100.00
6829;BME280;17930;48.592;8.868;2022-12-29T05:43:57;96272.75;;;11.03;100.00
6829;BME280;17930;48.592;8.868;2022-12-29T05:46:23;96262.81;;;11.05;100.00
6829;BME280;17930;48.592;8.868;2022-12-29T05:48:50;96269.91;;;11.18;100.00
6829;BME280;17930;48.592;8.868;2022-12-29T05:51:18;96281.41;;;11.17;100.00
6829;BME280;17930;48.592;8.868;2022-12-29T05:53:45;96265.00;;;11.29;100.00
6829;BME280;17930;48.592;8.868;2022-12-29T05:56:11;96277.47;;;11.32;100.00
6829;BME280;17930;48.592;8.868;2022-12-29T05:58:38;96267.72;;;11.38;100.00
6829;BME280;17930;48.592;8.868;2022-12-29T06:01:05;96262.59;;;11.33;100.00
6829;BME280;17930;48.592;8.868;2022-12-29T06:03:31;96254.06;;;11.27;100.00
6829;BME280;17930;48.592;8.868;2022-12-29T06:05:58;96259.78;;;11.29;100.00
6829;BME280;17930;48.592;8.868;2022-12-29T06:08:26;96266.50;;;11.17;100.00
6829;BME280;17930;48.592;8.868;2022-12-29T06:10:52;96249.69;;;11.10;100.00
6829;BME280;17930;48.592;8.868;2022-12-29T06:13:19;96245.41;;;11.00;100.00
6829;BME280;17930;48.592;8.868;2022-12-29T06:15:47;96233.13;;;11.01;100.00
6829;BME280;17930;48.592;8.868;2022-12-29T06:18:14;96256.94;;;11.13;100.00
6829;BME280;17930;48.592;8.868;2022-12-29T06:20:41;96258.16;;;11.33;100.00
6829;BME280;17930;48.592;8.868;2022-12-29T06:23:08;96262.72;;;11.41;100.00
6829;BME280;17930;48.592;8.868;2022-12-29T06:25:36;96260.81;;;11.28;100.00
6829;BME280;17930;48.592;8.868;2022-12-29T06:28:03;96263.78;;;11.09;100.00
6829;BME280;17930;48.592;8.868;2022-12-29T06:30:30;96256.38;;;10.84;100.00
6829;BME280;17930;48.592;8.868;2022-12-29T06:32:57;96258.94;;;10.52;100.00
6829;BME280;17930;48.592;8.868;2022-12-29T06:35:24;96272.06;;;10.47;100.00
6829;BME280;17930;48.592;8.868;2022-12-29T06:37:51;96271.84;;;10.44;100.00
6829;BME280;17930;48.592;8.868;2022-12-29T06:40:17;96266.97;;;10.37;100.00
6829;BME280;17930;48.592;8.868;2022-12-29T06:42:45;96264.28;;;10.42;100.00
6829;BME280;17930;48.592;8.868;2022-12-29T06:45:12;96256.59;;;10.32;100.00
6829;BME280;17930;48.592;8.868;2022-12-29T06:47:39;96260.91;;;10.23;100.00
6829;BME280;17930;48.592;8.868;2022-12-29T06:50:06;96253.72;;;10.16;100.00
6829;BME280;17930;48.592;8.868;2022-12-29T06:52:32;96250.31;;;9.97;100.00
6829;BME280;17930;48.592;8.868;2022-12-29T06:54:59;96247.75;;;9.92;100.00
6829;BME280;17930;48.592;8.868;2022-12-29T06:57:26;96242.22;;;9.98;100.00
6829;BME280;17930;48.592;8.868;2022-12-29T06:59:54;96244.88;;;9.93;100.00
6829;BME280;17930;48.592;8.868;2022-12-29T07:02:21;96237.34;;;9.92;100.00
6829;BME280;17930;48.592;8.868;2022-12-29T07:04:50;96241.06;;;9.86;100.00
6829;BME280;17930;48.592;8.868;2022-12-29T07:07:17;96232.53;;;9.80;100.00
6829;BME280;17930;48.592;8.868;2022-12-29T07:09:44;96240.22;;;9.67;100.00
6829;BME280;17930;48.592;8.868;2022-12-29T07:12:10;96246.44;;;9.48;100.00
6829;BME280;17930;48.592;8.868;2022-12-29T07:14:37;96248.25;;;9.47;100.00
6829;BME280;17930;48.592;8.868;2022-12-29T07:17:06;96247.41;;;9.28;100.00
6829;BME280;17930;48.592;8.868;2022-12-29T07:19:32;96245.38;;;9.25;100.00
6829;BME280;17930;48.592;8.868;2022-12-29T07:21:59;96265.25;;;9.12;100.00
6829;BME280;17930;48.592;8.868;2022-12-29T07:24:26;96262.97;;;9.05;100.00
6829;BME280;17930;48.592;8.868;2022-12-29T07:26:53;96253.84;;;9.08;100.00
6829;BME280;17930;48.592;8.868;2022-12-29T07:29:19;96253.91;;;9.03;100.00
6829;BME280;17930;48.592;8.868;2022-12-29T07:31:46;96256.44;;;9.08;100.00
6829;BME280;17930;48.592;8.868;2022-12-29T07:34:14;96253.66;;;8.99;100.00
6829;BME280;17930;48.592;8.868;2022-12-29T07:36:40;96260.56;;;9.14;100.00
6829;BME280;17930;48.592;8.868;2022-12-29T07:39:07;96262.56;;;9.21;100.00
6829;BME280;17930;48.592;8.868;2022-12-29T07:41:34;96268.25;;;9.23;100.00
6829;BME280;17930;48.592;8.868;2022-12-29T07:44:01;96278.28;;;9.40;100.00
6829;BME280;17930;48.592;8.868;2022-12-29T07:46:27;96273.97;;;9.54;100.00
6829;BME280;17930;48.592;8.868;2022-12-29T07:48:54;96263.81;;;9.75;100.00
6829;BME280;17930;48.592;8.868;2022-12-29T07:51:22;96263.50;;;9.82;100.00
6829;BME280;17930;48.592;8.868;2022-12-29T07:53:48;96261.94;;;9.81;100.00
6829;BME280;17930;48.592;8.868;2022-12-29T07:56:15;96267.47;;;9.74;100.00
6829;BME280;17930;48.592;8.868;2022-12-29T07:58:42;96281.78;;;9.77;100.00
6829;BME280;17930;48.592;8.868;2022-12-29T08:01:08;96275.03;;;9.76;100.00
6829;BME280;17930;48.592;8.868;2022-12-29T08:03:35;96271.03;;;9.83;100.00
6829;BME280;17930;48.592;8.868;2022-12-29T08:06:03;96282.09;;;9.94;100.00
6829;BME280;17930;48.592;8.868;2022-12-29T08:08:31;96279.56;;;9.89;100.00
6829;BME280;17930;48.592;8.868;2022-12-29T08:10:58;96282.09;;;9.94;100.00
6829;BME280;17930;48.592;8.868;2022-12-29T08:13:24;96286.53;;;9.93;100.00
6829;BME280;17930;48.592;8.868;2022-12-29T08:15:51;96289.25;;;10.07;100.00
6829;BME280;17930;48.592;8.868;2022-12-29T08:18:18;96290.47;;;9.96;100.00
6829;BME280;17930;48.592;8.868;2022-12-29T08:20:44;96288.50;;;10.06;100.00
6829;BME280;17930;48.592;8.868;2022-12-29T08:23:11;96292.88;;;10.11;100.00
6829;BME280;17930;48.592;8.868;2022-12-29T08:25:39;96300.47;;;10.07;100.00
6829;BME280;17930;48.592;8.868;2022-12-29T08:28:05;96311.59;;;10.13;100.00
6829;BME280;17930;48.592;8.868;2022-12-29T08:30:32;96305.22;;;10.23;100.00
6829;BME280;17930;48.592;8.868;2022-12-29T08:32:59;96290.50;;;10.32;100.00
6829;BME280;17930;48.592;8.868;2022-12-29T08:35:25;96281.63;;;10.33;100.00
6829;BME280;17930;48.592;8.868;2022-12-29T08:37:52;96292.91;;;10.29;100.00
6829;BME280;17930;48.592;8.868;2022-12-29T08:40:19;96270.63;;;10.36;100.00
6829;BME280;17930;48.592;8.868;2022-12-29T08:42:47;96284.47;;;10.37;100.00
6829;BME280;17930;48.592;8.868;2022-12-29T08:45:13;96278.13;;;10.61;100.00
6829;BME280;17930;48.592;8.868;2022-12-29T08:47:40;96287.03;;;11.23;100.00
6829;BME280;17930;48.592;8.868;2022-12-29T08:50:07;96271.03;;;11.43;100.00
6829;BME280;17930;48.592;8.868;2022-12-29T08:52:33;96289.78;;;11.45;100.00
6829;BME280;17930;48.592;8.868;2022-12-29T08:55:00;96277.06;;;11.57;100.00
6829;BME280;17930;48.592;8.868;2022-12-29T08:57:27;96291.22;;;11.70;100.00
6829;BME280;17930;48.592;8.868;2022-12-29T08:59:54;96288.31;;;11.84;100.00
6829;BME280;17930;48.592;8.868;2022-12-29T09:02:21;96300.41;;;11.94;100.00
6829;BME280;17930;48.592;8.868;2022-12-29T09:04:48;96303.31;;;12.06;100.00
6829;BME280;17930;48.592;8.868;2022-12-29T09:07:14;96296.81;;;12.17;100.00
6829;BME280;17930;48.592;8.868;2022-12-29T09:09:41;96298.16;;;12.27;100.00
6829;BME280;17930;48.592;8.868;2022-12-29T09:12:08;96298.88;;;12.55;100.00
6829;BME280;17930;48.592;8.868;2022-12-29T09:14:34;96290.50;;;12.44;100.00
6829;BME280;17930;48.592;8.868;2022-12-29T09:17:02;96295.06;;;12.26;100.00
6829;BME280;17930;48.592;8.868;2022-12-29T09:19:46;96305.91;;;12.32;100.00
6829;BME280;17930;48.592;8.868;2022-12-29T09:22:13;96320.53;;;12.33;100.00
6829;BME280;17930;48.592;8.868;2022-12-29T09:24:39;96316.53;;;12.49;100.00
6829;BME280;17930;48.592;8.868;2022-12-29T09:27:06;96311.25;;;12.63;100.00
6829;BME280;17930;48.592;8.868;2022-12-29T09:29:33;96315.22;;;12.74;100.00
6829;BME280;17930;48.592;8.868;2022-12-29T09:31:59;96320.81;;;12.94;100.00
6829;BME280;17930;48.592;8.868;2022-12-29T09:34:27;96329.59;;;12.98;100.00
6829;BME280;17930;48.592;8.868;2022-12-29T09:36:54;96322.59;;;13.07;100.00
6829;BME280;17930;48.592;8.868;2022-12-29T09:39:21;96317.34;;;13.29;100.00
6829;BME280;17930;48.592;8.868;2022-12-29T09:41:52;96310.41;;;13.54;100.00
6829;BME280;17930;48.592;8.868;2022-12-29T09:44:33;96321.16;;;13.44;100.00
6829;BME280;17930;48.592;8.868;2022-12-29T09:47:09;96315.94;;;13.23;100.00
6829;BME280;17930;48.592;8.868;2022-12-29T09:49:42;96331.53;;;13.06;100.00
6829;BME280;17930;48.592;8.868;2022-12-29T09:52:14;96321.13;;;12.92;100.00
6829;BME280;17930;48.592;8.868;2022-12-29T09:54:48;96325.38;;;12.88;100.00
6829;BME280;17930;48.592;8.868;2022-12-29T09:57:21;96336.63;;;12.89;100.00
6829;BME280;17930;48.592;8.868;2022-12-29T09:59:51;96331.50;;;12.84;100.00
6829;BME280;17930;48.592;8.868;2022-12-29T10:02:27;96328.38;;;12.82;100.00
6829;BME280;17930;48.592;8.868;2022-12-29T10:04:57;96336.22;;;12.95;100.00
6829;BME280;17930;48.592;8.868;2022-12-29T10:07:30;96336.16;;;13.09;100.00
6829;BME280;17930;48.592;8.868;2022-12-29T10:10:06;96346.63;;;13.09;100.00
6829;BME280;17930;48.592;8.868;2022-12-29T10:12:52;96332.88;;;13.03;100.00
6829;BME280;17930;48.592;8.868;2022-12-29T10:15:34;96332.47;;;13.10;100.00
6829;BME280;17930;48.592;8.868;2022-12-29T10:18:18;96317.72;;;13.14;100.00
6829;BME280;17930;48.592;8.868;2022-12-29T10:20:52;96336.88;;;13.23;100.00
6829;BME280;17930;48.592;8.868;2022-12-29T10:23:26;96330.00;;;13.27;100.00
6829;BME280;17930;48.592;8.868;2022-12-29T10:25:55;96334.13;;;13.28;100.00
6829;BME280;17930;48.592;8.868;2022-12-29T10:28:24;96329.09;;;13.31;100.00
6829;BME280;17930;48.592;8.868;2022-12-29T10:30:57;96328.22;;;13.14;100.00
6829;BME280;17930;48.592;8.868;2022-12-29T10:33:30;96337.34;;;13.03;100.00
6829;BME280;17930;48.592;8.868;2022-12-29T10:36:04;96329.81;;;12.88;100.00
6829;BME280;17930;48.592;8.868;2022-12-29T10:38:40;96339.91;;;12.81;100.00
6829;BME280;17930;48.592;8.868;2022-12-29T10:41:15;96329.44;;;12.94;100.00
6829;BME280;17930;48.592;8.868;2022-12-29T10:43:46;96339.91;;;12.94;100.00
6829;BME280;17930;48.592;8.868;2022-12-29T10:46:15;96334.31;;;12.87;100.00
6829;BME280;17930;48.592;8.868;2022-12-29T10:48:44;96335.06;;;12.88;100.00
6829;BME280;17930;48.592;8.868;2022-12-29T10:51:22;96330.63;;;12.88;100.00
6829;BME280;17930;48.592;8.868;2022-12-29T10:53:53;96332.75;;;12.86;100.00
6829;BME280;17930;48.592;8.868;2022-12-29T10:56:31;96337.22;;;12.86;100.00
6829;BME280;17930;48.592;8.868;2022-12-29T10:59:06;96340.78;;;12.90;100.00
6829;BME280;17930;48.592;8.868;2022-12-29T11:01:43;96331.84;;;12.91;100.00
6829;BME280;17930;48.592;8.868;2022-12-29T11:04:28;96341.63;;;12.99;100.00
6829;BME280;17930;48.592;8.868;2022-12-29T11:07:00;96334.25;;;13.01;100.00
6829;BME280;17930;48.592;8.868;2022-12-29T11:09:29;96340.13;;;12.84;100.00
6829;BME280;17930;48.592;8.868;2022-12-29T11:11:57;96335.84;;;12.75;100.00
6829;BME280;17930;48.592;8.868;2022-12-29T11:14:30;96338.38;;;12.80;100.00
6829;BME280;17930;48.592;8.868;2022-12-29T11:16:58;96350.59;;;12.84;100.00
6829;BME280;17930;48.592;8.868;2022-12-29T11:19:26;96365.34;;;12.67;100.00
6829;BME280;17930;48.592;8.868;2022-12-29T11:21:54;96358.66;;;12.61;100.00
6829;BME280;17930;48.592;8.868;2022-12-29T11:24:24;96351.53;;;12.75;100.00
6829;BME280;17930;48.592;8.868;2022-12-29T11:26:52;96339.25;;;12.76;100.00
6829;BME280;17930;48.592;8.868;2022-12-29T11:29:25;96351.28;;;12.63;100.00
6829;BME280;17930;48.592;8.868;2022-12-29T11:31:53;96352.19;;;12.59;100.00
6829;BME280;17930;48.592;8.868;2022-12-29T11:34:23;96353.69;;;12.73;100.00
6829;BME280;17930;48.592;8.868;2022-12-29T11:36:52;96350.41;;;12.68;100.00
6829;BME280;17930;48.592;8.868;2022-12-29T11:39:31;96339.56;;;12.61;100.00
6829;BME280;17930;48.592;8.868;2022-12-29T11:42:00;96351.50;;;12.40;100.00
6829;BME280;17930;48.592;8.868;2022-12-29T11:44:31;96351.63;;;12.35;100.00
6829;BME280;17930;48.592;8.868;2022-12-29T11:47:02;96350.28;;;12.37;100.00
6829;BME280;17930;48.592;8.868;2022-12-29T11:49:28;96353.56;;;12.29;100.00
6829;BME280;17930;48.592;8.868;2022-12-29T11:51:55;96351.22;;;12.15;100.00
6829;BME280;17930;48.592;8.868;2022-12-29T11:54:25;96342.41;;;12.24;100.00
6829;BME280;17930;48.592;8.868;2022-12-29T11:56:54;96345.91;;;12.20;100.00
6829;BME280;17930;48.592;8.868;2022-12-29T11:59:24;96349.47;;;12.10;100.00
6829;BME280;17930;48.592;8.868;2022-12-29T12:02:14;96347.97;;;12.09;100.00
6829;BME280;17930;48.592;8.868;2022-12-29T12:04:43;96338.56;;;12.08;100.00
6829;BME280;17930;48.592;8.868;2022-12-29T12:07:12;96340.19;;;12.04;100.00
6829;BME280;17930;48.592;8.868;2022-12-29T12:09:49;96347.63;;;11.97;100.00
6829;BME280;17930;48.592;8.868;2022-12-29T12:12:28;96340.38;;;11.94;100.00
6829;BME280;17930;48.592;8.868;2022-12-29T12:14:58;96330.41;;;11.83;100.00
6829;BME280;17930;48.592;8.868;2022-12-29T12:17:28;96331.25;;;11.65;100.00
6829;BME280;17930;48.592;8.868;2022-12-29T12:20:12;96323.03;;;11.58;100.00
6829;BME280;17930;48.592;8.868;2022-12-29T12:22:43;96326.19;;;11.55;100.00
6829;BME280;17930;48.592;8.868;2022-12-29T12:25:16;96333.06;;;11.51;100.00
6829;BME280;17930;48.592;8.868;2022-12-29T12:27:48;96327.28;;;11.54;100.00
6829;BME280;17930;48.592;8.868;2022-12-29T12:30:19;96321.69;;;11.42;100.00
6829;BME280;17930;48.592;8.868;2022-12-29T12:32:51;96331.25;;;11.33;100.00
6829;BME280;17930;48.592;8.868;2022-12-29T12:35:26;96332.88;;;11.29;100.00
6829;BME280;17930;48.592;8.868;2022-12-29T12:38:20;96324.41;;;11.37;100.00
6829;BME280;17930;48.592;8.868;2022-12-29T12:40:59;96320.44;;;11.58;100.00
6829;BME280;17930;48.592;8.868;2022-12-29T12:43:37;96314.72;;;11.70;100.00
6829;BME280;17930;48.592;8.868;2022-12-29T12:49:28;96301.00;;;11.91;100.00
6829;BME280;17930;48.592;8.868;2022-12-29T12:52:06;96302.44;;;11.97;100.00
6829;BME280;17930;48.592;8.868;2022-12-29T12:54:45;96296.03;;;12.03;100.00
6829;BME280;17930;48.592;8.868;2022-12-29T12:57:22;96297.41;;;12.14;100.00
6829;BME280;17930;48.592;8.868;2022-12-29T13:00:01;96302.22;;;12.20;100.00
6829;BME280;17930;48.592;8.868;2022-12-29T13:02:40;96299.91;;;12.19;100.00
6829;BME280;17930;48.592;8.868;2022-12-29T13:05:22;96291.09;;;12.28;100.00
6829;BME280;17930;48.592;8.868;2022-12-29T13:07:59;96295.84;;;12.13;100.00
6829;BME280;17930;48.592;8.868;2022-12-29T13:10:41;96291.41;;;12.00;100.00
6829;BME280;17930;48.592;8.868;2022-12-29T13:13:31;96293.81;;;12.10;100.00
6829;BME280;17930;48.592;8.868;2022-12-29T13:16:06;96293.91;;;12.05;100.00
6829;BME280;17930;48.592;8.868;2022-12-29T13:18:42;96296.25;;;12.06;100.00
6829;BME280;17930;48.592;8.868;2022-12-29T13:21:22;96293.13;;;12.04;100.00
6829;BME280;17930;48.592;8.868;2022-12-29T13:23:56;96290.63;;;11.86;100.00
6829;BME280;17930;48.592;8.868;2022-12-29T13:26:32;96293.16;;;11.91;100.00
6829;BME280;17930;48.592;8.868;2022-12-29T13:29:06;96290.03;;;11.89;100.00